createdAt,value
2023-04-12T00:01:08.632Z,3.60
2023-04-12T00:03:36.491Z,3.40
2023-04-12T00:06:07.431Z,3.50
2023-04-12T00:08:35.393Z,3.83
2023-04-12T00:11:04.059Z,3.33
2023-04-12T00:13:31.581Z,4.80
2023-04-12T00:15:59.563Z,8.80
2023-04-12T00:18:27.385Z,4.10
2023-04-12T00:20:55.912Z,3.70
2023-04-12T00:23:23.427Z,3.73
2023-04-12T00:25:50.927Z,5.30
2023-04-12T00:28:18.592Z,5.10
2023-04-12T00:30:46.040Z,4.97
2023-04-12T00:33:13.515Z,4.70
2023-04-12T00:35:41.153Z,4.40
2023-04-12T00:38:10.866Z,3.63
2023-04-12T00:40:42.926Z,11.53
2023-04-12T00:43:15.378Z,8.40
2023-04-12T00:45:43.190Z,6.97
2023-04-12T00:48:11.181Z,4.40
2023-04-12T00:50:41.862Z,6.77
2023-04-12T00:53:13.530Z,4.57
2023-04-12T00:55:42.620Z,7.53
2023-04-12T00:58:10.421Z,4.43
2023-04-12T01:00:39.410Z,4.73
2023-04-12T01:03:08.774Z,5.80
2023-04-12T01:05:41.317Z,3.30
2023-04-12T01:08:15.639Z,7.07
2023-04-12T01:11:07.165Z,4.60
2023-04-12T01:13:44.814Z,7.27
2023-04-12T01:16:18.637Z,3.70
2023-04-12T01:18:51.786Z,4.33
2023-04-12T01:21:47.122Z,4.20
2023-04-12T01:24:27.114Z,5.53
2023-04-12T01:26:57.798Z,5.73
2023-04-12T01:29:28.292Z,6.27
2023-04-12T01:31:59.685Z,6.93
2023-04-12T01:34:29.163Z,4.37
2023-04-12T01:36:58.264Z,5.87
2023-04-12T01:39:26.231Z,7.30
2023-04-12T01:41:53.767Z,5.27
2023-04-12T01:44:22.440Z,4.27
2023-04-12T01:46:50.142Z,5.67
2023-04-12T01:49:18.896Z,7.37
2023-04-12T01:52:11.657Z,4.90
2023-04-12T01:54:43.845Z,4.23
2023-04-12T01:57:11.966Z,5.00
2023-04-12T01:59:44.143Z,5.03
2023-04-12T02:02:13.814Z,5.97
2023-04-12T02:04:43.188Z,4.47
2023-04-12T02:07:12.221Z,4.13
2023-04-12T02:09:40.490Z,4.27
2023-04-12T02:12:08.584Z,5.00
2023-04-12T02:14:37.062Z,4.03
2023-04-12T02:17:05.643Z,4.73
2023-04-12T02:19:33.869Z,5.17
2023-04-12T02:22:02.271Z,5.07
2023-04-12T02:24:31.190Z,4.90
2023-04-12T02:27:01.679Z,5.97
2023-04-12T02:29:29.612Z,4.47
2023-04-12T02:31:57.380Z,4.13
2023-04-12T02:34:31.342Z,7.40
2023-04-12T02:37:08.191Z,5.43
2023-04-12T02:39:36.441Z,7.47
2023-04-12T02:42:05.470Z,6.80
2023-04-12T02:44:35.189Z,4.03
2023-04-12T02:47:12.775Z,5.20
2023-04-12T02:49:44.226Z,11.47
2023-04-12T02:52:15.653Z,10.70
2023-04-12T02:54:58.708Z,4.83
2023-04-12T02:57:26.292Z,6.90
2023-04-12T02:59:56.555Z,4.53
2023-04-12T03:02:31.635Z,8.67
2023-04-12T03:05:03.566Z,8.90
2023-04-12T03:07:42.886Z,6.30
2023-04-12T03:10:16.375Z,9.93
2023-04-12T03:12:49.187Z,6.50
2023-04-12T03:15:23.687Z,7.07
2023-04-12T03:17:53.358Z,4.83
2023-04-12T03:20:25.202Z,6.60
2023-04-12T03:23:02.834Z,5.50
2023-04-12T03:25:32.472Z,7.10
2023-04-12T03:28:12.685Z,8.00
2023-04-12T03:30:52.626Z,4.97
2023-04-12T03:33:22.741Z,5.67
2023-04-12T03:35:52.058Z,6.80
2023-04-12T03:38:19.314Z,6.57
2023-04-12T03:40:48.388Z,8.20
2023-04-12T03:43:18.533Z,6.70
2023-04-12T03:45:46.416Z,6.60
2023-04-12T03:48:13.766Z,6.33
2023-04-12T03:50:48.570Z,5.40
2023-04-12T03:53:21.544Z,5.73
2023-04-12T03:55:50.375Z,8.83
2023-04-12T03:58:19.018Z,4.63
2023-04-12T04:00:47.355Z,6.90
2023-04-12T04:03:15.151Z,4.80
2023-04-12T04:05:47.321Z,6.27
2023-04-12T04:08:18.072Z,7.27
2023-04-12T04:10:52.453Z,4.43
2023-04-12T04:13:41.742Z,5.50
2023-04-12T04:16:12.651Z,9.43
2023-04-12T04:18:41.281Z,5.90
2023-04-12T04:21:10.916Z,4.20
2023-04-12T04:23:39.188Z,4.20
2023-04-12T04:26:11.032Z,7.13
2023-04-12T04:28:46.381Z,4.47
2023-04-12T04:31:18.305Z,4.40
2023-04-12T04:33:49.540Z,4.70
2023-04-12T04:36:18.168Z,7.00
2023-04-12T04:38:51.127Z,7.20
2023-04-12T04:41:46.467Z,8.23
2023-04-12T04:44:21.813Z,6.23
2023-04-12T04:46:54.559Z,8.47
2023-04-12T04:49:22.796Z,4.87
2023-04-12T04:51:51.592Z,7.63
2023-04-12T04:54:21.504Z,5.67
2023-04-12T04:56:48.959Z,7.13
2023-04-12T04:59:18.294Z,5.20
2023-04-12T05:01:47.685Z,4.03
2023-04-12T05:04:17.613Z,3.93
2023-04-12T05:06:45.378Z,4.17
2023-04-12T05:09:14.337Z,5.67
2023-04-12T05:11:48.424Z,4.93
2023-04-12T05:14:16.988Z,5.50
2023-04-12T05:16:44.230Z,6.70
2023-04-12T05:19:11.504Z,7.13
2023-04-12T05:21:39.799Z,5.17
2023-04-12T05:24:07.235Z,5.93
2023-04-12T05:26:37.409Z,4.97
2023-04-12T05:29:10.668Z,3.90
2023-04-12T05:31:39.817Z,5.57
2023-04-12T05:34:14.035Z,4.87
2023-04-12T05:36:50.305Z,3.63
2023-04-12T05:39:20.064Z,4.93
2023-04-12T05:41:51.007Z,4.03
2023-04-12T05:44:21.559Z,5.50
2023-04-12T05:46:48.822Z,5.37
2023-04-12T05:49:17.728Z,4.50
2023-04-12T05:51:44.865Z,6.07
2023-04-12T05:54:21.062Z,5.90
2023-04-12T05:56:50.190Z,4.67
2023-04-12T05:59:19.847Z,3.80
2023-04-12T06:01:47.257Z,3.73
2023-04-12T06:04:17.967Z,4.20
2023-04-12T06:06:45.328Z,3.87
2023-04-12T06:09:13.829Z,4.70
2023-04-12T06:11:41.356Z,4.60
2023-04-12T06:14:11.653Z,4.37
2023-04-12T06:16:41.290Z,4.53
2023-04-12T06:19:09.056Z,9.13
2023-04-12T06:21:37.308Z,5.50
2023-04-12T06:24:04.605Z,6.40
2023-04-12T06:26:39.790Z,5.00
2023-04-12T06:29:07.910Z,4.50
2023-04-12T06:31:36.106Z,9.03
2023-04-12T06:34:04.400Z,4.23
2023-04-12T06:36:32.515Z,6.10
2023-04-12T06:39:01.465Z,3.70
2023-04-12T06:41:30.496Z,5.27
2023-04-12T06:44:01.494Z,5.13
2023-04-12T06:46:28.908Z,5.37
2023-04-12T06:48:59.025Z,6.60
2023-04-12T06:51:26.521Z,6.23
2023-04-12T06:53:54.487Z,6.60
2023-04-12T06:56:24.856Z,3.83
2023-04-12T06:58:52.125Z,4.67
2023-04-12T07:01:19.457Z,3.83
2023-04-12T07:03:47.786Z,4.83
2023-04-12T07:06:24.882Z,4.70
2023-04-12T07:08:53.667Z,6.27
2023-04-12T07:11:23.107Z,6.13
2023-04-12T07:13:51.573Z,6.67
2023-04-12T07:16:20.758Z,5.23
2023-04-12T07:18:48.435Z,6.97
2023-04-12T07:21:17.819Z,5.10
2023-04-12T07:23:48.821Z,3.20
2023-04-12T07:26:18.059Z,3.40
2023-04-12T07:28:45.358Z,3.10
2023-04-12T07:31:14.025Z,3.67
2023-04-12T07:33:42.968Z,3.30
2023-04-12T07:36:12.310Z,5.93
2023-04-12T07:38:39.618Z,4.73
2023-04-12T07:41:06.866Z,2.90
2023-04-12T07:43:34.465Z,2.53
2023-04-12T07:46:04.509Z,3.67
2023-04-12T07:48:31.786Z,3.80
2023-04-12T07:50:59.005Z,3.53
2023-04-12T07:53:27.539Z,4.03
2023-04-12T07:55:55.834Z,6.60
2023-04-12T07:58:23.858Z,3.40
2023-04-12T08:00:52.302Z,2.70
2023-04-12T08:03:19.957Z,2.60
2023-04-12T08:05:53.117Z,5.77
2023-04-12T08:08:22.022Z,2.80
2023-04-12T08:10:50.096Z,3.77
2023-04-12T08:13:17.355Z,3.40
2023-04-12T08:15:47.148Z,3.50
2023-04-12T08:18:14.700Z,3.67
2023-04-12T08:20:44.227Z,3.00
2023-04-12T08:23:12.014Z,3.03
2023-04-12T08:25:41.136Z,2.93
2023-04-12T08:28:09.193Z,2.67
2023-04-12T08:30:36.952Z,3.20
2023-04-12T08:33:04.310Z,3.73
2023-04-12T08:35:32.966Z,3.10
2023-04-12T08:38:06.670Z,3.13
2023-04-12T08:40:34.045Z,3.40
2023-04-12T08:43:12.240Z,2.60
2023-04-12T08:45:40.804Z,3.27
2023-04-12T08:48:07.978Z,3.30
2023-04-12T08:50:35.729Z,3.97
2023-04-12T08:53:03.304Z,3.97
2023-04-12T08:55:30.512Z,7.87
2023-04-12T08:57:58.528Z,2.70
2023-04-12T09:00:26.991Z,4.60
2023-04-12T09:02:55.688Z,2.80
2023-04-12T09:05:31.066Z,3.00
2023-04-12T09:08:00.156Z,3.63
2023-04-12T09:10:32.569Z,3.83
2023-04-12T09:13:00.475Z,2.97
2023-04-12T09:15:32.260Z,3.60
2023-04-12T09:18:08.086Z,2.50
2023-04-12T09:20:37.419Z,3.27
2023-04-12T09:23:38.472Z,3.50
2023-04-12T09:26:06.726Z,2.97
2023-04-12T09:28:33.996Z,3.50
2023-04-12T09:31:03.803Z,4.60
2023-04-12T09:33:35.805Z,5.80
2023-04-12T09:36:04.287Z,9.20
2023-04-12T09:38:31.865Z,3.20
2023-04-12T09:41:17.002Z,4.60
2023-04-12T09:43:45.643Z,3.17
2023-04-12T09:46:14.795Z,3.30
2023-04-12T09:48:43.469Z,3.30
2023-04-12T09:51:12.766Z,3.70
2023-04-12T09:53:43.139Z,3.60
2023-04-12T09:56:11.497Z,3.80
2023-04-12T09:58:39.787Z,3.70
2023-04-12T10:01:09.778Z,4.10
2023-04-12T10:03:39.128Z,4.40
2023-04-12T10:06:06.745Z,4.07
2023-04-12T10:08:36.299Z,8.47
2023-04-12T10:11:04.461Z,7.67
2023-04-12T10:13:38.201Z,6.90
2023-04-12T10:16:06.349Z,4.57
2023-04-12T10:18:37.135Z,6.33
2023-04-12T10:21:05.092Z,8.33
2023-04-12T10:23:35.365Z,7.43
2023-04-12T10:26:05.157Z,5.03
2023-04-12T10:28:34.826Z,7.60
2023-04-12T10:31:22.140Z,7.83
2023-04-12T10:33:52.977Z,4.83
2023-04-12T10:36:20.406Z,6.80
2023-04-12T10:38:49.971Z,4.83
2023-04-12T10:41:22.744Z,5.77
2023-04-12T10:43:51.123Z,5.43
2023-04-12T10:46:38.125Z,7.03
2023-04-12T10:49:09.676Z,5.67
2023-04-12T10:51:38.140Z,6.50
2023-04-12T10:54:10.693Z,5.40
2023-04-12T10:56:38.695Z,5.90
2023-04-12T10:59:07.812Z,5.07
2023-04-12T11:01:41.160Z,7.03
2023-04-12T11:04:10.000Z,10.50
2023-04-12T11:06:41.565Z,7.30
2023-04-12T11:09:29.307Z,9.00
2023-04-12T11:12:11.016Z,7.17
2023-04-12T11:14:39.799Z,6.57
2023-04-12T11:17:07.136Z,7.93
2023-04-12T11:19:35.183Z,5.90
2023-04-12T11:22:04.305Z,6.77
2023-04-12T11:24:32.252Z,7.37
2023-04-12T11:27:00.871Z,5.97
2023-04-12T11:29:29.175Z,6.10
2023-04-12T11:31:57.464Z,8.23
2023-04-12T11:34:25.337Z,9.73
2023-04-12T11:36:53.534Z,8.43
2023-04-12T11:39:21.184Z,8.40
2023-04-12T11:41:48.893Z,8.20
2023-04-12T11:44:21.634Z,7.57
2023-04-12T11:46:51.887Z,6.73
2023-04-12T11:49:19.927Z,6.73
2023-04-12T11:51:49.403Z,6.00
2023-04-12T11:54:16.869Z,8.23
2023-04-12T11:56:44.256Z,7.37
2023-04-12T11:59:12.467Z,10.83
2023-04-12T12:01:40.305Z,6.27
2023-04-12T12:04:07.727Z,7.40
2023-04-12T12:06:35.733Z,5.50
2023-04-12T12:09:03.743Z,6.90
2023-04-12T12:11:32.958Z,7.13
2023-04-12T12:14:00.748Z,8.87
2023-04-12T12:16:29.108Z,6.80
2023-04-12T12:18:57.208Z,6.83
2023-04-12T12:21:24.417Z,6.93
2023-04-12T12:23:51.611Z,5.57
2023-04-12T12:26:26.029Z,7.03
2023-04-12T12:28:54.449Z,6.13
2023-04-12T12:31:26.252Z,5.10
2023-04-12T12:33:57.450Z,6.23
2023-04-12T12:36:36.181Z,9.70
2023-04-12T12:39:10.196Z,6.50
2023-04-12T12:41:37.705Z,5.10
2023-04-12T12:44:06.691Z,4.70
2023-04-12T12:49:04.309Z,4.60
2023-04-12T12:51:31.895Z,4.33
2023-04-12T12:53:59.279Z,4.90
2023-04-12T12:56:26.618Z,4.60
2023-04-12T12:58:54.005Z,7.90
2023-04-12T13:01:21.240Z,7.10
2023-04-12T13:03:48.721Z,4.60
2023-04-12T13:06:16.781Z,6.30
2023-04-12T13:08:43.981Z,6.00
2023-04-12T13:11:11.309Z,4.67
2023-04-12T13:13:38.559Z,4.40
2023-04-12T13:16:06.069Z,4.00
2023-04-12T13:18:33.264Z,4.10
2023-04-12T13:21:00.490Z,3.73
2023-04-12T13:23:29.158Z,4.80
2023-04-12T13:25:56.327Z,4.30
2023-04-12T13:28:23.533Z,6.80
2023-04-12T13:30:51.838Z,6.00
2023-04-12T13:33:21.810Z,7.30
2023-04-12T13:35:49.949Z,4.80
2023-04-12T13:38:18.249Z,5.77
2023-04-12T13:40:45.431Z,5.00
2023-04-12T13:43:12.857Z,5.10
2023-04-12T13:45:42.078Z,5.07
2023-04-12T13:48:09.872Z,4.47
2023-04-12T13:50:37.420Z,4.80
2023-04-12T13:53:06.049Z,3.80
2023-04-12T13:55:33.247Z,4.20
2023-04-12T13:58:03.524Z,3.63
2023-04-12T14:00:31.055Z,3.57
2023-04-12T14:02:58.376Z,7.03
2023-04-12T14:05:25.728Z,4.30
2023-04-12T14:07:55.532Z,5.20
2023-04-12T14:10:22.720Z,4.50
2023-04-12T14:12:49.927Z,3.60
2023-04-12T14:15:18.145Z,3.50
2023-04-12T14:17:45.937Z,4.37
2023-04-12T14:20:16.032Z,3.57
2023-04-12T14:22:44.969Z,5.40
2023-04-12T14:25:12.323Z,5.10
2023-04-12T14:27:39.860Z,3.50
2023-04-12T14:30:08.193Z,3.73
2023-04-12T14:32:37.819Z,3.70
2023-04-12T14:35:05.417Z,2.67
2023-04-12T14:37:33.115Z,3.40
2023-04-12T14:40:00.974Z,4.67
2023-04-12T14:42:28.728Z,3.30
2023-04-12T14:44:57.938Z,2.70
2023-04-12T14:47:25.695Z,2.83
2023-04-12T14:49:52.984Z,4.07
2023-04-12T14:52:23.376Z,3.60
2023-04-12T14:54:51.016Z,3.20
2023-04-12T14:57:18.241Z,3.23
2023-04-12T14:59:46.143Z,2.50
2023-04-12T15:02:13.518Z,2.30
2023-04-12T15:04:41.998Z,2.83
2023-04-12T15:07:09.449Z,2.63
2023-04-12T15:09:36.636Z,2.50
2023-04-12T15:12:04.232Z,4.60
2023-04-12T15:14:31.547Z,2.67
2023-04-12T15:16:58.754Z,2.30
2023-04-12T15:19:26.170Z,2.47
2023-04-12T15:21:55.406Z,2.37
2023-04-12T15:24:25.083Z,1.90
2023-04-12T15:26:53.029Z,3.23
2023-04-12T15:29:22.311Z,3.00
2023-04-12T15:31:50.336Z,2.50
2023-04-12T15:34:21.392Z,3.23
2023-04-12T15:36:50.777Z,1.60
2023-04-12T15:39:18.802Z,2.03
2023-04-12T15:41:48.655Z,3.77
2023-04-12T15:44:17.213Z,1.93
2023-04-12T15:46:46.004Z,1.90
2023-04-12T15:49:18.987Z,1.80
2023-04-12T15:51:46.338Z,2.00
2023-04-12T15:54:15.709Z,1.80
2023-04-12T15:56:43.053Z,2.17
2023-04-12T15:59:12.176Z,1.83
2023-04-12T16:01:42.227Z,1.63
2023-04-12T16:04:09.616Z,2.10
2023-04-12T16:06:38.135Z,2.03
2023-04-12T16:09:05.441Z,2.93
2023-04-12T16:11:35.200Z,2.03
2023-04-12T16:14:03.502Z,3.77
2023-04-12T16:16:31.262Z,3.07
2023-04-12T16:19:00.859Z,3.87
2023-04-12T16:21:30.232Z,2.00
2023-04-12T16:23:59.327Z,1.80
2023-04-12T16:26:27.014Z,1.70
2023-04-12T16:28:54.909Z,1.60
2023-04-12T16:31:25.205Z,1.80
2023-04-12T16:33:52.869Z,3.13
2023-04-12T16:36:25.139Z,1.97
2023-04-12T16:38:54.906Z,1.90
2023-04-12T16:41:23.377Z,1.63
2023-04-12T16:43:53.459Z,1.60
2023-04-12T16:46:21.228Z,1.53
2023-04-12T16:48:48.440Z,1.60
2023-04-12T16:51:15.619Z,1.87
2023-04-12T16:53:42.809Z,1.47
2023-04-12T16:56:10.032Z,5.00
2023-04-12T16:58:41.890Z,1.40
2023-04-12T17:01:09.315Z,1.83
2023-04-12T17:03:36.577Z,2.77
2023-04-12T17:06:06.168Z,1.60
2023-04-12T17:08:33.661Z,1.93
2023-04-12T17:11:01.454Z,2.00
2023-04-12T17:13:30.156Z,1.60
2023-04-12T17:15:58.201Z,1.60
2023-04-12T17:18:26.049Z,1.77
2023-04-12T17:20:54.150Z,1.50
2023-04-12T17:23:21.329Z,1.93
2023-04-12T17:25:48.776Z,2.50
2023-04-12T17:28:18.369Z,1.80
2023-04-12T17:30:46.376Z,2.00
2023-04-12T17:33:13.855Z,3.17
2023-04-12T17:35:42.361Z,3.90
2023-04-12T17:38:11.716Z,2.03
2023-04-12T17:40:39.996Z,1.90
2023-04-12T17:43:07.179Z,1.90
2023-04-12T17:45:35.419Z,2.83
2023-04-12T17:48:09.325Z,3.37
2023-04-12T17:50:36.568Z,4.10
2023-04-12T17:53:05.646Z,2.17
2023-04-12T17:55:32.885Z,3.63
2023-04-12T17:58:02.319Z,2.00
2023-04-12T18:00:29.653Z,2.03
2023-04-12T18:02:57.478Z,1.87
2023-04-12T18:05:24.897Z,4.10
2023-04-12T18:07:52.664Z,2.20
2023-04-12T18:10:23.591Z,1.97
2023-04-12T18:12:51.115Z,2.80
2023-04-12T18:15:18.507Z,2.43
2023-04-12T18:17:46.021Z,5.50
2023-04-12T18:20:13.939Z,2.43
2023-04-12T18:22:42.225Z,4.47
2023-04-12T18:25:11.535Z,2.33
2023-04-12T18:27:39.347Z,2.40
2023-04-12T18:30:07.444Z,2.03
2023-04-12T18:32:34.658Z,2.17
2023-04-12T18:35:04.524Z,3.27
2023-04-12T18:37:31.823Z,3.20
2023-04-12T18:39:59.049Z,2.00
2023-04-12T18:42:26.235Z,5.13
2023-04-12T18:44:56.271Z,2.77
2023-04-12T18:47:27.319Z,3.40
2023-04-12T18:49:55.501Z,3.00
2023-04-12T18:52:22.809Z,4.10
2023-04-12T18:54:50.219Z,5.03
2023-04-12T18:57:17.528Z,2.50
2023-04-12T18:59:47.754Z,3.00
2023-04-12T19:02:15.413Z,2.07
2023-04-12T19:04:42.728Z,5.30
2023-04-12T19:07:10.027Z,2.77
2023-04-12T19:09:37.827Z,2.60
2023-04-12T19:12:05.351Z,2.60
2023-04-12T19:14:32.871Z,2.03
2023-04-12T19:17:00.871Z,2.37
2023-04-12T19:19:28.134Z,4.23
2023-04-12T19:21:56.745Z,1.80
2023-04-12T19:24:24.349Z,2.87
2023-04-12T19:26:51.604Z,1.90
2023-04-12T19:29:20.316Z,1.97
2023-04-12T19:31:48.904Z,2.43
2023-04-12T19:34:17.910Z,4.50
2023-04-12T19:36:45.638Z,1.90
2023-04-12T19:39:15.451Z,2.33
2023-04-12T19:41:43.981Z,1.83
2023-04-12T19:44:15.159Z,1.63
2023-04-12T19:46:42.686Z,1.73
2023-04-12T19:49:10.343Z,1.77
2023-04-12T19:51:38.790Z,5.20
2023-04-12T19:54:09.844Z,2.70
2023-04-12T19:56:37.586Z,2.60
2023-04-12T19:59:06.676Z,2.07
2023-04-12T20:01:47.574Z,2.07
2023-04-12T20:04:16.515Z,1.80
2023-04-12T20:06:44.665Z,2.33
2023-04-12T20:09:13.934Z,2.20
2023-04-12T20:11:41.882Z,2.00
2023-04-12T20:14:09.243Z,2.10
2023-04-12T20:16:37.775Z,4.90
2023-04-12T20:19:05.403Z,1.90
2023-04-12T20:21:34.062Z,2.43
2023-04-12T20:24:07.950Z,3.50
2023-04-12T20:26:36.183Z,2.30
2023-04-12T20:29:04.811Z,2.50
2023-04-12T20:31:32.252Z,2.40
2023-04-12T20:34:00.242Z,2.20
2023-04-12T20:36:29.568Z,2.07
2023-04-12T20:38:57.308Z,2.23
2023-04-12T20:41:24.914Z,2.30
2023-04-12T20:43:52.267Z,2.47
2023-04-12T20:46:25.859Z,2.40
2023-04-12T20:48:56.083Z,1.80
2023-04-12T20:51:23.799Z,4.50
2023-04-12T20:53:53.851Z,2.60
2023-04-12T20:56:21.246Z,2.37
2023-04-12T20:58:49.646Z,2.97
2023-04-12T21:01:16.942Z,1.90
2023-04-12T21:03:44.334Z,2.30
2023-04-12T21:06:11.652Z,2.00
2023-04-12T21:08:39.430Z,3.20
2023-04-12T21:11:06.874Z,2.17
2023-04-12T21:13:34.283Z,5.17
2023-04-12T21:16:05.549Z,2.60
2023-04-12T21:18:34.310Z,2.13
2023-04-12T21:21:02.068Z,2.07
2023-04-12T21:23:29.384Z,1.90
2023-04-12T21:25:56.919Z,2.17
2023-04-12T21:28:24.102Z,1.80
2023-04-12T21:30:55.229Z,3.00
2023-04-12T21:33:26.396Z,2.87
2023-04-12T21:35:54.606Z,2.87
2023-04-12T21:38:22.764Z,2.07
2023-04-12T21:40:50.124Z,1.90
2023-04-12T21:43:18.528Z,3.63
2023-04-12T21:45:47.150Z,2.40
2023-04-12T21:48:14.738Z,2.50
2023-04-12T21:50:42.108Z,2.80
2023-04-12T21:53:09.385Z,2.23
2023-04-12T21:55:36.590Z,2.23
2023-04-12T21:58:03.984Z,2.20
2023-04-12T22:00:32.343Z,2.30
2023-04-12T22:02:59.980Z,2.27
2023-04-12T22:05:27.957Z,2.10
2023-04-12T22:07:55.467Z,2.67
2023-04-12T22:10:22.681Z,3.33
2023-04-12T22:12:53.826Z,3.70
2023-04-12T22:15:21.208Z,3.23
2023-04-12T22:17:49.048Z,3.33
2023-04-12T22:20:16.231Z,2.80
2023-04-12T22:22:43.973Z,2.67
2023-04-12T22:25:14.612Z,2.67
2023-04-12T22:27:46.121Z,2.47
2023-04-12T22:30:13.356Z,2.53
2023-04-12T22:32:40.552Z,2.00
2023-04-12T22:35:09.080Z,2.10
2023-04-12T22:37:38.980Z,4.27
2023-04-12T22:40:11.265Z,2.53
2023-04-12T22:42:46.173Z,1.83
2023-04-12T22:45:14.532Z,2.37
2023-04-12T22:47:42.423Z,2.50
2023-04-12T22:50:12.971Z,2.00
2023-04-12T22:52:40.715Z,2.07
2023-04-12T22:55:09.350Z,2.90
2023-04-12T22:57:36.980Z,2.10
2023-04-12T23:00:05.863Z,1.80
2023-04-12T23:02:33.615Z,1.87
2023-04-12T23:05:02.699Z,2.03
2023-04-12T23:07:31.147Z,2.20
2023-04-12T23:09:58.487Z,1.70
2023-04-12T23:12:25.961Z,1.80
2023-04-12T23:14:55.799Z,1.90
2023-04-12T23:17:23.392Z,1.70
2023-04-12T23:19:51.920Z,1.83
2023-04-12T23:22:55.190Z,1.80
2023-04-12T23:25:25.483Z,2.30
2023-04-12T23:27:53.847Z,2.00
2023-04-12T23:30:22.684Z,2.03
2023-04-12T23:32:51.439Z,2.70
2023-04-12T23:35:18.716Z,1.90
2023-04-12T23:37:45.955Z,2.30
2023-04-12T23:40:14.973Z,1.87
2023-04-12T23:42:45.238Z,1.90
2023-04-12T23:45:12.476Z,3.37
2023-04-12T23:47:39.960Z,1.80
2023-04-12T23:50:07.507Z,1.70
2023-04-12T23:52:34.906Z,3.40
2023-04-12T23:55:02.979Z,2.13
2023-04-12T23:57:30.374Z,1.50
2023-04-12T23:59:57.711Z,2.10
